sensor_id;sensor_type;location;lat;lon;timestamp;temperature;humidity
2300;DHT22;1158;48.750;9.078;2022-12-18T00:02:18;-13.50;99.90
2300;DHT22;1158;48.750;9.078;2022-12-18T00:04:44;-13.60;99.90
2300;DHT22;1158;48.750;9.078;2022-12-18T00:07:11;-13.60;99.90
2300;DHT22;1158;48.750;9.078;2022-12-18T00:09:38;-13.60;99.90
2300;DHT22;1158;48.750;9.078;2022-12-18T00:12:05;-13.60;99.90
2300;DHT22;1158;48.750;9.078;2022-12-18T00:14:32;-13.60;99.90
2300;DHT22;1158;48.750;9.078;2022-12-18T00:17:00;-13.60;99.90
2300;DHT22;1158;48.750;9.078;2022-12-18T00:19:28;-13.60;99.90
2300;DHT22;1158;48.750;9.078;2022-12-18T00:21:54;-13.70;99.90
2300;DHT22;1158;48.750;9.078;2022-12-18T00:24:22;-13.70;99.90
2300;DHT22;1158;48.750;9.078;2022-12-18T00:26:48;-13.70;99.90
2300;DHT22;1158;48.750;9.078;2022-12-18T00:29:15;-13.70;99.90
2300;DHT22;1158;48.750;9.078;2022-12-18T00:31:42;-13.70;99.90
2300;DHT22;1158;48.750;9.078;2022-12-18T00:34:12;-13.70;99.90
2300;DHT22;1158;48.750;9.078;2022-12-18T00:36:39;-13.70;99.90
2300;DHT22;1158;48.750;9.078;2022-12-18T00:39:06;-13.70;99.90
2300;DHT22;1158;48.750;9.078;2022-12-18T00:41:33;-13.80;99.90
2300;DHT22;1158;48.750;9.078;2022-12-18T00:44:18;-13.80;99.90
2300;DHT22;1158;48.750;9.078;2022-12-18T00:46:46;-13.80;99.90
2300;DHT22;1158;48.750;9.078;2022-12-18T00:49:16;-13.70;99.90
2300;DHT22;1158;48.750;9.078;2022-12-18T00:51:43;-13.70;99.90
2300;DHT22;1158;48.750;9.078;2022-12-18T00:54:10;-13.80;99.90
2300;DHT22;1158;48.750;9.078;2022-12-18T00:56:37;-13.90;99.90
2300;DHT22;1158;48.750;9.078;2022-12-18T00:59:04;-13.90;99.90
2300;DHT22;1158;48.750;9.078;2022-12-18T01:01:31;-13.90;99.90
2300;DHT22;1158;48.750;9.078;2022-12-18T01:03:59;-13.90;99.90
2300;DHT22;1158;48.750;9.078;2022-12-18T01:06:28;-13.90;99.90
2300;DHT22;1158;48.750;9.078;2022-12-18T01:08:55;-13.90;99.90
2300;DHT22;1158;48.750;9.078;2022-12-18T01:11:22;-13.90;99.90
2300;DHT22;1158;48.750;9.078;2022-12-18T01:13:49;-13.90;99.90
2300;DHT22;1158;48.750;9.078;2022-12-18T01:16:17;-14.00;99.90
2300;DHT22;1158;48.750;9.078;2022-12-18T01:18:44;-14.00;99.90
2300;DHT22;1158;48.750;9.078;2022-12-18T01:21:14;-14.00;99.90
2300;DHT22;1158;48.750;9.078;2022-12-18T01:23:42;-14.00;99.90
2300;DHT22;1158;48.750;9.078;2022-12-18T01:26:13;-14.00;99.90
2300;DHT22;1158;48.750;9.078;2022-12-18T01:28:41;-14.00;99.90
2300;DHT22;1158;48.750;9.078;2022-12-18T01:31:11;-14.00;99.90
2300;DHT22;1158;48.750;9.078;2022-12-18T01:33:38;-14.00;99.90
2300;DHT22;1158;48.750;9.078;2022-12-18T01:36:05;-14.00;99.90
2300;DHT22;1158;48.750;9.078;2022-12-18T01:38:32;-14.10;99.90
2300;DHT22;1158;48.750;9.078;2022-12-18T01:41:01;-14.10;99.90
2300;DHT22;1158;48.750;9.078;2022-12-18T01:43:45;-14.10;99.90
2300;DHT22;1158;48.750;9.078;2022-12-18T01:46:12;-14.10;99.90
2300;DHT22;1158;48.750;9.078;2022-12-18T01:48:40;-14.00;99.90
2300;DHT22;1158;48.750;9.078;2022-12-18T01:51:08;-14.00;99.90
2300;DHT22;1158;48.750;9.078;2022-12-18T01:53:36;-13.90;99.90
2300;DHT22;1158;48.750;9.078;2022-12-18T01:56:05;-13.90;99.90
2300;DHT22;1158;48.750;9.078;2022-12-18T01:58:36;-13.80;99.90
2300;DHT22;1158;48.750;9.078;2022-12-18T02:01:05;-13.80;99.90
2300;DHT22;1158;48.750;9.078;2022-12-18T02:03:31;-13.80;99.90
2300;DHT22;1158;48.750;9.078;2022-12-18T02:06:03;-13.70;99.90
2300;DHT22;1158;48.750;9.078;2022-12-18T02:08:37;-13.60;99.90
2300;DHT22;1158;48.750;9.078;2022-12-18T02:11:13;-13.60;99.90
2300;DHT22;1158;48.750;9.078;2022-12-18T02:13:46;-13.50;99.90
2300;DHT22;1158;48.750;9.078;2022-12-18T02:16:21;-13.50;99.90
2300;DHT22;1158;48.750;9.078;2022-12-18T02:18:55;-13.40;99.90
2300;DHT22;1158;48.750;9.078;2022-12-18T02:21:28;-13.30;99.90
2300;DHT22;1158;48.750;9.078;2022-12-18T02:24:11;-13.20;99.90
2300;DHT22;1158;48.750;9.078;2022-12-18T02:26:46;-13.20;99.90
2300;DHT22;1158;48.750;9.078;2022-12-18T02:29:18;-13.20;99.90
2300;DHT22;1158;48.750;9.078;2022-12-18T02:31:51;-13.10;99.90
2300;DHT22;1158;48.750;9.078;2022-12-18T02:34:19;-13.10;99.90
2300;DHT22;1158;48.750;9.078;2022-12-18T02:36:50;-13.00;99.90
2300;DHT22;1158;48.750;9.078;2022-12-18T02:39:19;-13.10;99.90
2300;DHT22;1158;48.750;9.078;2022-12-18T02:41:49;-13.20;99.90
2300;DHT22;1158;48.750;9.078;2022-12-18T02:44:17;-13.20;99.90
2300;DHT22;1158;48.750;9.078;2022-12-18T02:46:45;-13.20;99.90
2300;DHT22;1158;48.750;9.078;2022-12-18T02:49:24;-13.20;99.90
2300;DHT22;1158;48.750;9.078;2022-12-18T02:51:56;-13.20;99.90
2300;DHT22;1158;48.750;9.078;2022-12-18T02:54:38;-13.20;99.90
2300;DHT22;1158;48.750;9.078;2022-12-18T02:57:14;-13.10;99.90
2300;DHT22;1158;48.750;9.078;2022-12-18T02:59:49;-13.10;99.90
2300;DHT22;1158;48.750;9.078;2022-12-18T03:02:22;-13.10;99.90
2300;DHT22;1158;48.750;9.078;2022-12-18T03:04:55;-13.10;99.90
2300;DHT22;1158;48.750;9.078;2022-12-18T03:07:32;-13.00;99.90
2300;DHT22;1158;48.750;9.078;2022-12-18T03:10:00;-13.10;99.90
2300;DHT22;1158;48.750;9.078;2022-12-18T03:12:32;-13.00;99.90
2300;DHT22;1158;48.750;9.078;2022-12-18T03:15:03;-13.00;99.90
2300;DHT22;1158;48.750;9.078;2022-12-18T03:17:32;-12.90;99.90
2300;DHT22;1158;48.750;9.078;2022-12-18T03:20:03;-12.90;99.90
2300;DHT22;1158;48.750;9.078;2022-12-18T03:22:33;-12.80;99.90
2300;DHT22;1158;48.750;9.078;2022-12-18T03:25:02;-12.80;99.90
2300;DHT22;1158;48.750;9.078;2022-12-18T03:27:33;-12.80;99.90
2300;DHT22;1158;48.750;9.078;2022-12-18T03:30:05;-12.80;99.90
2300;DHT22;1158;48.750;9.078;2022-12-18T03:35:04;-12.80;99.90
2300;DHT22;1158;48.750;9.078;2022-12-18T03:37:32;-12.90;99.90
2300;DHT22;1158;48.750;9.078;2022-12-18T03:39:59;-12.90;99.90
2300;DHT22;1158;48.750;9.078;2022-12-18T03:42:29;-12.90;99.90
2300;DHT22;1158;48.750;9.078;2022-12-18T03:45:05;-13.00;99.90
2300;DHT22;1158;48.750;9.078;2022-12-18T03:47:39;-13.10;99.90
2300;DHT22;1158;48.750;9.078;2022-12-18T03:50:12;-13.10;99.90
2300;DHT22;1158;48.750;9.078;2022-12-18T03:52:44;-13.10;99.90
2300;DHT22;1158;48.750;9.078;2022-12-18T03:55:13;-13.10;99.90
2300;DHT22;1158;48.750;9.078;2022-12-18T03:57:41;-13.10;99.90
2300;DHT22;1158;48.750;9.078;2022-12-18T04:00:12;-13.10;99.90
2300;DHT22;1158;48.750;9.078;2022-12-18T04:02:42;-13.20;99.90
2300;DHT22;1158;48.750;9.078;2022-12-18T04:05:11;-13.20;99.90
2300;DHT22;1158;48.750;9.078;2022-12-18T04:07:39;-13.30;99.90
2300;DHT22;1158;48.750;9.078;2022-12-18T04:10:07;-13.30;99.90
2300;DHT22;1158;48.750;9.078;2022-12-18T04:12:37;-13.30;99.90
2300;DHT22;1158;48.750;9.078;2022-12-18T04:15:05;-13.20;99.90
2300;DHT22;1158;48.750;9.078;2022-12-18T04:17:33;-13.20;99.90
2300;DHT22;1158;48.750;9.078;2022-12-18T04:20:00;-13.30;99.90
2300;DHT22;1158;48.750;9.078;2022-12-18T04:22:26;-13.30;99.90
2300;DHT22;1158;48.750;9.078;2022-12-18T04:24:53;-13.30;99.90
2300;DHT22;1158;48.750;9.078;2022-12-18T04:27:20;-13.20;99.90
2300;DHT22;1158;48.750;9.078;2022-12-18T04:29:47;-13.20;99.90
2300;DHT22;1158;48.750;9.078;2022-12-18T04:32:13;-13.20;99.90
2300;DHT22;1158;48.750;9.078;2022-12-18T04:34:41;-13.30;99.90
2300;DHT22;1158;48.750;9.078;2022-12-18T04:37:08;-13.20;99.90
2300;DHT22;1158;48.750;9.078;2022-12-18T04:39:35;-13.10;99.90
2300;DHT22;1158;48.750;9.078;2022-12-18T04:42:02;-12.90;99.90
2300;DHT22;1158;48.750;9.078;2022-12-18T04:44:29;-12.90;99.90
2300;DHT22;1158;48.750;9.078;2022-12-18T04:46:56;-12.80;99.90
2300;DHT22;1158;48.750;9.078;2022-12-18T04:49:22;-12.90;99.90
2300;DHT22;1158;48.750;9.078;2022-12-18T04:51:50;-12.90;99.90
2300;DHT22;1158;48.750;9.078;2022-12-18T04:54:18;-13.00;99.90
2300;DHT22;1158;48.750;9.078;2022-12-18T04:56:45;-13.10;99.90
2300;DHT22;1158;48.750;9.078;2022-12-18T04:59:12;-13.20;99.90
2300;DHT22;1158;48.750;9.078;2022-12-18T05:01:38;-13.30;99.90
2300;DHT22;1158;48.750;9.078;2022-12-18T05:04:05;-13.40;99.90
2300;DHT22;1158;48.750;9.078;2022-12-18T05:06:32;-13.40;99.90
2300;DHT22;1158;48.750;9.078;2022-12-18T05:09:00;-13.30;99.90
2300;DHT22;1158;48.750;9.078;2022-12-18T05:11:26;-13.10;99.90
2300;DHT22;1158;48.750;9.078;2022-12-18T05:13:56;-13.10;99.90
2300;DHT22;1158;48.750;9.078;2022-12-18T05:16:23;-13.00;99.90
2300;DHT22;1158;48.750;9.078;2022-12-18T05:18:49;-13.00;99.90
2300;DHT22;1158;48.750;9.078;2022-12-18T05:21:16;-12.90;99.90
2300;DHT22;1158;48.750;9.078;2022-12-18T05:23:43;-12.80;99.90
2300;DHT22;1158;48.750;9.078;2022-12-18T05:26:15;-12.70;99.90
2300;DHT22;1158;48.750;9.078;2022-12-18T05:28:42;-12.80;99.90
2300;DHT22;1158;48.750;9.078;2022-12-18T05:31:09;-12.90;99.90
2300;DHT22;1158;48.750;9.078;2022-12-18T05:33:36;-13.00;99.90
2300;DHT22;1158;48.750;9.078;2022-12-18T05:36:06;-13.00;99.90
2300;DHT22;1158;48.750;9.078;2022-12-18T05:38:34;-13.00;99.90
2300;DHT22;1158;48.750;9.078;2022-12-18T05:41:01;-13.00;99.90
2300;DHT22;1158;48.750;9.078;2022-12-18T05:43:29;-13.00;99.90
2300;DHT22;1158;48.750;9.078;2022-12-18T05:45:56;-13.00;99.90
2300;DHT22;1158;48.750;9.078;2022-12-18T05:48:23;-13.10;99.90
2300;DHT22;1158;48.750;9.078;2022-12-18T05:50:51;-13.20;99.90
2300;DHT22;1158;48.750;9.078;2022-12-18T05:53:19;-13.40;99.90
2300;DHT22;1158;48.750;9.078;2022-12-18T05:55:46;-13.50;99.90
2300;DHT22;1158;48.750;9.078;2022-12-18T05:58:14;-13.60;99.90
2300;DHT22;1158;48.750;9.078;2022-12-18T06:00:43;-13.60;99.90
2300;DHT22;1158;48.750;9.078;2022-12-18T06:03:11;-13.60;99.90
2300;DHT22;1158;48.750;9.078;2022-12-18T06:05:40;-13.70;99.90
2300;DHT22;1158;48.750;9.078;2022-12-18T06:08:08;-13.70;99.90
2300;DHT22;1158;48.750;9.078;2022-12-18T06:10:35;-13.70;99.90
2300;DHT22;1158;48.750;9.078;2022-12-18T06:13:02;-13.70;99.90
2300;DHT22;1158;48.750;9.078;2022-12-18T06:15:29;-13.80;99.90
2300;DHT22;1158;48.750;9.078;2022-12-18T06:17:57;-13.80;99.90
2300;DHT22;1158;48.750;9.078;2022-12-18T06:20:23;-13.80;99.90
2300;DHT22;1158;48.750;9.078;2022-12-18T06:22:50;-13.80;99.90
2300;DHT22;1158;48.750;9.078;2022-12-18T06:25:17;-13.90;99.90
2300;DHT22;1158;48.750;9.078;2022-12-18T06:27:45;-13.90;99.90
2300;DHT22;1158;48.750;9.078;2022-12-18T06:30:13;-13.90;99.90
2300;DHT22;1158;48.750;9.078;2022-12-18T06:32:40;-13.90;99.90
2300;DHT22;1158;48.750;9.078;2022-12-18T06:35:08;-13.90;99.90
2300;DHT22;1158;48.750;9.078;2022-12-18T06:37:35;-14.00;99.90
2300;DHT22;1158;48.750;9.078;2022-12-18T06:40:02;-14.00;99.90
2300;DHT22;1158;48.750;9.078;2022-12-18T06:42:30;-14.00;99.90
2300;DHT22;1158;48.750;9.078;2022-12-18T06:44:57;-14.00;99.90
2300;DHT22;1158;48.750;9.078;2022-12-18T06:47:24;-14.10;99.90
2300;DHT22;1158;48.750;9.078;2022-12-18T06:49:50;-14.10;99.90
2300;DHT22;1158;48.750;9.078;2022-12-18T06:52:19;-14.20;99.90
2300;DHT22;1158;48.750;9.078;2022-12-18T06:54:46;-14.20;99.90
2300;DHT22;1158;48.750;9.078;2022-12-18T06:57:12;-14.10;99.90
2300;DHT22;1158;48.750;9.078;2022-12-18T06:59:39;-14.10;99.90
2300;DHT22;1158;48.750;9.078;2022-12-18T07:02:06;-14.10;99.90
2300;DHT22;1158;48.750;9.078;2022-12-18T07:04:32;-14.00;99.90
2300;DHT22;1158;48.750;9.078;2022-12-18T07:06:59;-14.00;99.90
2300;DHT22;1158;48.750;9.078;2022-12-18T07:09:30;-14.00;99.90
2300;DHT22;1158;48.750;9.078;2022-12-18T07:11:57;-14.00;99.90
2300;DHT22;1158;48.750;9.078;2022-12-18T07:14:24;-14.00;99.90
2300;DHT22;1158;48.750;9.078;2022-12-18T07:16:50;-14.00;99.90
2300;DHT22;1158;48.750;9.078;2022-12-18T07:19:17;-13.90;99.90
2300;DHT22;1158;48.750;9.078;2022-12-18T07:21:44;-13.90;99.90
2300;DHT22;1158;48.750;9.078;2022-12-18T07:24:11;-13.90;99.90
2300;DHT22;1158;48.750;9.078;2022-12-18T07:26:39;-13.80;99.90
2300;DHT22;1158;48.750;9.078;2022-12-18T07:29:06;-13.70;99.90
2300;DHT22;1158;48.750;9.078;2022-12-18T07:31:33;-13.60;99.90
2300;DHT22;1158;48.750;9.078;2022-12-18T07:33:59;-13.60;99.90
2300;DHT22;1158;48.750;9.078;2022-12-18T07:36:26;-13.50;99.90
2300;DHT22;1158;48.750;9.078;2022-12-18T07:38:53;-13.40;99.90
2300;DHT22;1158;48.750;9.078;2022-12-18T07:41:20;-13.30;99.90
2300;DHT22;1158;48.750;9.078;2022-12-18T07:43:48;-13.10;99.90
2300;DHT22;1158;48.750;9.078;2022-12-18T07:46:15;-13.00;99.90
2300;DHT22;1158;48.750;9.078;2022-12-18T07:48:43;-12.90;99.90
2300;DHT22;1158;48.750;9.078;2022-12-18T07:51:10;-12.70;99.90
2300;DHT22;1158;48.750;9.078;2022-12-18T07:53:38;-12.60;99.90
2300;DHT22;1158;48.750;9.078;2022-12-18T07:56:07;-12.50;99.90
2300;DHT22;1158;48.750;9.078;2022-12-18T07:58:35;-12.50;99.90
2300;DHT22;1158;48.750;9.078;2022-12-18T08:01:04;-12.30;99.90
2300;DHT22;1158;48.750;9.078;2022-12-18T08:03:31;-12.20;99.90
2300;DHT22;1158;48.750;9.078;2022-12-18T08:05:59;-12.20;99.90
2300;DHT22;1158;48.750;9.078;2022-12-18T08:08:27;-12.00;99.90
2300;DHT22;1158;48.750;9.078;2022-12-18T08:10:53;-12.00;99.90
2300;DHT22;1158;48.750;9.078;2022-12-18T08:13:20;-11.70;99.90
2300;DHT22;1158;48.750;9.078;2022-12-18T08:15:56;-11.50;99.90
2300;DHT22;1158;48.750;9.078;2022-12-18T08:18:24;-11.20;99.90
2300;DHT22;1158;48.750;9.078;2022-12-18T08:20:51;-10.90;99.90
2300;DHT22;1158;48.750;9.078;2022-12-18T08:23:18;-10.50;99.90
2300;DHT22;1158;48.750;9.078;2022-12-18T08:25:45;-9.70;99.90
2300;DHT22;1158;48.750;9.078;2022-12-18T08:28:13;-8.60;99.90
2300;DHT22;1158;48.750;9.078;2022-12-18T08:30:39;-7.40;99.90
2300;DHT22;1158;48.750;9.078;2022-12-18T08:33:06;-6.70;99.90
2300;DHT22;1158;48.750;9.078;2022-12-18T08:35:36;-5.80;99.90
2300;DHT22;1158;48.750;9.078;2022-12-18T08:38:03;-4.90;99.90
2300;DHT22;1158;48.750;9.078;2022-12-18T08:40:30;-4.50;99.90
2300;DHT22;1158;48.750;9.078;2022-12-18T08:42:56;-4.00;99.90
2300;DHT22;1158;48.750;9.078;2022-12-18T08:45:41;-4.00;99.90
2300;DHT22;1158;48.750;9.078;2022-12-18T08:48:07;-3.40;99.90
2300;DHT22;1158;48.750;9.078;2022-12-18T08:50:35;-2.90;99.90
2300;DHT22;1158;48.750;9.078;2022-12-18T08:53:02;-2.30;99.90
2300;DHT22;1158;48.750;9.078;2022-12-18T08:55:29;-1.90;99.90
2300;DHT22;1158;48.750;9.078;2022-12-18T08:57:56;-1.90;99.90
2300;DHT22;1158;48.750;9.078;2022-12-18T09:00:23;-1.80;99.90
2300;DHT22;1158;48.750;9.078;2022-12-18T09:02:50;-2.10;99.90
2300;DHT22;1158;48.750;9.078;2022-12-18T09:05:17;-1.80;99.90
2300;DHT22;1158;48.750;9.078;2022-12-18T09:07:45;-1.80;99.90
2300;DHT22;1158;48.750;9.078;2022-12-18T09:10:12;-1.80;99.90
2300;DHT22;1158;48.750;9.078;2022-12-18T09:12:38;-1.80;99.90
2300;DHT22;1158;48.750;9.078;2022-12-18T09:15:06;-1.70;99.90
2300;DHT22;1158;48.750;9.078;2022-12-18T09:17:33;-1.60;99.90
2300;DHT22;1158;48.750;9.078;2022-12-18T09:19:59;-2.10;99.90
2300;DHT22;1158;48.750;9.078;2022-12-18T09:22:26;-2.00;99.90
2300;DHT22;1158;48.750;9.078;2022-12-18T09:24:54;-1.90;99.90
2300;DHT22;1158;48.750;9.078;2022-12-18T09:27:21;-1.90;99.90
2300;DHT22;1158;48.750;9.078;2022-12-18T09:29:48;-1.90;99.90
2300;DHT22;1158;48.750;9.078;2022-12-18T09:32:14;-2.30;99.90
2300;DHT22;1158;48.750;9.078;2022-12-18T09:34:41;-2.30;99.90
2300;DHT22;1158;48.750;9.078;2022-12-18T09:37:08;-2.50;99.90
2300;DHT22;1158;48.750;9.078;2022-12-18T09:39:35;-2.60;99.90
2300;DHT22;1158;48.750;9.078;2022-12-18T09:42:03;-3.10;99.90
2300;DHT22;1158;48.750;9.078;2022-12-18T09:44:35;-3.00;99.90
2300;DHT22;1158;48.750;9.078;2022-12-18T09:47:09;-2.70;99.90
2300;DHT22;1158;48.750;9.078;2022-12-18T09:49:40;-2.70;99.90
2300;DHT22;1158;48.750;9.078;2022-12-18T09:52:13;-2.70;99.90
2300;DHT22;1158;48.750;9.078;2022-12-18T09:54:42;-2.40;99.90
2300;DHT22;1158;48.750;9.078;2022-12-18T09:57:14;-2.10;99.90
2300;DHT22;1158;48.750;9.078;2022-12-18T09:59:43;-1.90;99.90
2300;DHT22;1158;48.750;9.078;2022-12-18T10:02:18;-1.90;99.90
2300;DHT22;1158;48.750;9.078;2022-12-18T10:04:56;-2.00;99.90
2300;DHT22;1158;48.750;9.078;2022-12-18T10:07:37;-2.00;99.90
2300;DHT22;1158;48.750;9.078;2022-12-18T10:10:10;-1.80;99.90
2300;DHT22;1158;48.750;9.078;2022-12-18T10:12:48;-1.10;99.90
2300;DHT22;1158;48.750;9.078;2022-12-18T10:15:22;-1.40;99.90
2300;DHT22;1158;48.750;9.078;2022-12-18T10:17:55;-1.20;99.90
2300;DHT22;1158;48.750;9.078;2022-12-18T10:20:32;-1.10;99.90
2300;DHT22;1158;48.750;9.078;2022-12-18T10:23:04;-0.90;99.90
2300;DHT22;1158;48.750;9.078;2022-12-18T10:25:40;-1.40;99.90
2300;DHT22;1158;48.750;9.078;2022-12-18T10:28:12;-1.70;99.90
2300;DHT22;1158;48.750;9.078;2022-12-18T10:30:40;-2.20;99.90
2300;DHT22;1158;48.750;9.078;2022-12-18T10:33:10;-2.20;99.90
2300;DHT22;1158;48.750;9.078;2022-12-18T10:35:41;-2.30;99.90
2300;DHT22;1158;48.750;9.078;2022-12-18T10:38:22;-2.00;99.90
2300;DHT22;1158;48.750;9.078;2022-12-18T10:40:51;-2.30;99.90
2300;DHT22;1158;48.750;9.078;2022-12-18T10:43:23;-2.60;99.90
2300;DHT22;1158;48.750;9.078;2022-12-18T10:46:00;-2.60;99.90
2300;DHT22;1158;48.750;9.078;2022-12-18T10:48:28;-2.70;99.90
2300;DHT22;1158;48.750;9.078;2022-12-18T10:50:55;-2.40;99.90
2300;DHT22;1158;48.750;9.078;2022-12-18T10:53:24;-2.20;99.90
2300;DHT22;1158;48.750;9.078;2022-12-18T10:55:52;-2.10;99.90
2300;DHT22;1158;48.750;9.078;2022-12-18T10:58:24;-1.90;99.90
2300;DHT22;1158;48.750;9.078;2022-12-18T11:01:03;-1.80;99.90
2300;DHT22;1158;48.750;9.078;2022-12-18T11:03:33;-1.70;99.90
2300;DHT22;1158;48.750;9.078;2022-12-18T11:06:03;-1.70;99.90
2300;DHT22;1158;48.750;9.078;2022-12-18T11:08:30;-1.20;99.90
2300;DHT22;1158;48.750;9.078;2022-12-18T11:10:57;-1.10;99.90
2300;DHT22;1158;48.750;9.078;2022-12-18T11:13:27;-0.90;99.90
2300;DHT22;1158;48.750;9.078;2022-12-18T11:15:54;-0.50;99.90
2300;DHT22;1158;48.750;9.078;2022-12-18T11:18:26;-0.60;99.90
2300;DHT22;1158;48.750;9.078;2022-12-18T11:20:56;-0.70;99.90
2300;DHT22;1158;48.750;9.078;2022-12-18T11:23:24;-0.90;99.90
2300;DHT22;1158;48.750;9.078;2022-12-18T11:25:53;-1.20;99.90
2300;DHT22;1158;48.750;9.078;2022-12-18T11:28:36;-1.10;99.90
2300;DHT22;1158;48.750;9.078;2022-12-18T11:31:19;-0.50;99.90
2300;DHT22;1158;48.750;9.078;2022-12-18T11:33:50;-0.10;99.90
2300;DHT22;1158;48.750;9.078;2022-12-18T11:36:19;-0.40;99.90
2300;DHT22;1158;48.750;9.078;2022-12-18T11:38:49;-0.20;99.90
2300;DHT22;1158;48.750;9.078;2022-12-18T11:41:23;-0.20;99.90
2300;DHT22;1158;48.750;9.078;2022-12-18T11:44:15;0.00;99.90
2300;DHT22;1158;48.750;9.078;2022-12-18T11:46:48;0.40;99.90
2300;DHT22;1158;48.750;9.078;2022-12-18T11:49:20;0.50;99.90
2300;DHT22;1158;48.750;9.078;2022-12-18T11:51:51;0.60;99.90
2300;DHT22;1158;48.750;9.078;2022-12-18T11:54:20;0.90;99.90
2300;DHT22;1158;48.750;9.078;2022-12-18T11:56:50;1.60;99.90
2300;DHT22;1158;48.750;9.078;2022-12-18T11:59:25;1.50;99.90
2300;DHT22;1158;48.750;9.078;2022-12-18T12:01:57;1.60;99.90
2300;DHT22;1158;48.750;9.078;2022-12-18T12:04:48;1.60;99.90
2300;DHT22;1158;48.750;9.078;2022-12-18T12:07:28;1.20;99.90
2300;DHT22;1158;48.750;9.078;2022-12-18T12:10:08;1.00;99.90
2300;DHT22;1158;48.750;9.078;2022-12-18T12:12:51;1.10;99.90
2300;DHT22;1158;48.750;9.078;2022-12-18T12:15:28;0.90;99.90
2300;DHT22;1158;48.750;9.078;2022-12-18T12:18:03;1.00;99.90
2300;DHT22;1158;48.750;9.078;2022-12-18T12:20:42;0.80;99.90
2300;DHT22;1158;48.750;9.078;2022-12-18T12:23:19;1.50;99.90
2300;DHT22;1158;48.750;9.078;2022-12-18T12:25:50;1.30;99.90
2300;DHT22;1158;48.750;9.078;2022-12-18T12:28:36;1.00;99.90
2300;DHT22;1158;48.750;9.078;2022-12-18T12:31:13;0.90;99.90
2300;DHT22;1158;48.750;9.078;2022-12-18T12:33:47;0.70;99.90
2300;DHT22;1158;48.750;9.078;2022-12-18T12:36:22;0.20;99.90
2300;DHT22;1158;48.750;9.078;2022-12-18T12:38:56;0.10;99.90
2300;DHT22;1158;48.750;9.078;2022-12-18T12:41:25;-0.10;99.90
2300;DHT22;1158;48.750;9.078;2022-12-18T12:44:16;-0.10;99.90
2300;DHT22;1158;48.750;9.078;2022-12-18T12:46:48;-0.20;99.90
2300;DHT22;1158;48.750;9.078;2022-12-18T12:49:19;-0.30;99.90
2300;DHT22;1158;48.750;9.078;2022-12-18T12:51:55;-0.20;99.90
2300;DHT22;1158;48.750;9.078;2022-12-18T12:54:26;-0.10;99.90
2300;DHT22;1158;48.750;9.078;2022-12-18T12:57:00;0.00;99.90
2300;DHT22;1158;48.750;9.078;2022-12-18T12:59:32;-0.20;99.90
2300;DHT22;1158;48.750;9.078;2022-12-18T13:02:06;-0.10;99.90
2300;DHT22;1158;48.750;9.078;2022-12-18T13:04:42;0.10;99.90
2300;DHT22;1158;48.750;9.078;2022-12-18T13:07:15;0.40;99.90
2300;DHT22;1158;48.750;9.078;2022-12-18T13:10:20;0.40;99.90
2300;DHT22;1158;48.750;9.078;2022-12-18T13:12:53;0.50;99.90
2300;DHT22;1158;48.750;9.078;2022-12-18T13:15:25;0.60;99.90
2300;DHT22;1158;48.750;9.078;2022-12-18T13:18:13;0.70;99.90
2300;DHT22;1158;48.750;9.078;2022-12-18T13:20:42;0.60;99.90
2300;DHT22;1158;48.750;9.078;2022-12-18T13:23:25;0.50;99.90
2300;DHT22;1158;48.750;9.078;2022-12-18T13:25:53;0.40;99.90
2300;DHT22;1158;48.750;9.078;2022-12-18T13:28:21;0.40;99.90
2300;DHT22;1158;48.750;9.078;2022-12-18T13:30:55;1.60;99.90
2300;DHT22;1158;48.750;9.078;2022-12-18T13:33:43;1.90;99.90
2300;DHT22;1158;48.750;9.078;2022-12-18T13:36:28;0.90;99.90
2300;DHT22;1158;48.750;9.078;2022-12-18T13:39:11;0.30;99.90
2300;DHT22;1158;48.750;9.078;2022-12-18T13:41:48;0.00;99.90
2300;DHT22;1158;48.750;9.078;2022-12-18T13:44:30;-0.20;99.90
2300;DHT22;1158;48.750;9.078;2022-12-18T13:46:58;-0.40;99.90
2300;DHT22;1158;48.750;9.078;2022-12-18T13:49:32;-0.50;99.90
2300;DHT22;1158;48.750;9.078;2022-12-18T13:52:13;-0.50;99.90
2300;DHT22;1158;48.750;9.078;2022-12-18T13:54:41;-0.70;99.90
2300;DHT22;1158;48.750;9.078;2022-12-18T13:57:25;-0.70;99.90
2300;DHT22;1158;48.750;9.078;2022-12-18T13:59:52;-0.80;99.90
2300;DHT22;1158;48.750;9.078;2022-12-18T14:02:21;-1.00;99.90
2300;DHT22;1158;48.750;9.078;2022-12-18T14:04:51;-1.00;99.90
2300;DHT22;1158;48.750;9.078;2022-12-18T14:07:19;-1.20;99.90
2300;DHT22;1158;48.750;9.078;2022-12-18T14:09:49;-1.40;99.90
2300;DHT22;1158;48.750;9.078;2022-12-18T14:12:20;-1.40;99.90
2300;DHT22;1158;48.750;9.078;2022-12-18T14:15:07;-1.40;99.90
2300;DHT22;1158;48.750;9.078;2022-12-18T14:17:42;-1.40;99.90
2300;DHT22;1158;48.750;9.078;2022-12-18T14:20:14;-1.40;99.90
2300;DHT22;1158;48.750;9.078;2022-12-18T14:22:43;-1.60;99.90
2300;DHT22;1158;48.750;9.078;2022-12-18T14:25:16;-1.90;99.90
2300;DHT22;1158;48.750;9.078;2022-12-18T14:27:45;-2.10;99.90
2300;DHT22;1158;48.750;9.078;2022-12-18T14:30:26;-2.20;99.90
2300;DHT22;1158;48.750;9.078;2022-12-18T14:33:00;-2.30;99.90
2300;DHT22;1158;48.750;9.078;2022-12-18T14:35:29;-2.40;99.90
2300;DHT22;1158;48.750;9.078;2022-12-18T14:38:17;-2.40;99.90
2300;DHT22;1158;48.750;9.078;2022-12-18T14:40:45;-2.50;99.90
2300;DHT22;1158;48.750;9.078;2022-12-18T14:43:12;-2.70;99.90
2300;DHT22;1158;48.750;9.078;2022-12-18T14:45:40;-2.70;99.90
2300;DHT22;1158;48.750;9.078;2022-12-18T14:48:09;-2.80;99.90
2300;DHT22;1158;48.750;9.078;2022-12-18T14:50:37;-2.90;99.90
2300;DHT22;1158;48.750;9.078;2022-12-18T14:53:04;-3.00;99.90
2300;DHT22;1158;48.750;9.078;2022-12-18T14:55:31;-3.10;99.90
2300;DHT22;1158;48.750;9.078;2022-12-18T14:57:58;-3.10;99.90
2300;DHT22;1158;48.750;9.078;2022-12-18T15:00:25;-3.20;99.90
2300;DHT22;1158;48.750;9.078;2022-12-18T15:02:54;-3.30;99.90
2300;DHT22;1158;48.750;9.078;2022-12-18T15:05:25;-3.30;99.90
2300;DHT22;1158;48.750;9.078;2022-12-18T15:07:55;-3.40;99.90
2300;DHT22;1158;48.750;9.078;2022-12-18T15:10:24;-3.50;99.90
2300;DHT22;1158;48.750;9.078;2022-12-18T15:13:07;-3.60;99.90
2300;DHT22;1158;48.750;9.078;2022-12-18T15:15:45;-3.70;99.90
2300;DHT22;1158;48.750;9.078;2022-12-18T15:18:14;-3.70;99.90
2300;DHT22;1158;48.750;9.078;2022-12-18T15:20:44;-3.80;99.90
2300;DHT22;1158;48.750;9.078;2022-12-18T15:23:18;-3.90;99.90
2300;DHT22;1158;48.750;9.078;2022-12-18T15:25:46;-3.90;99.90
2300;DHT22;1158;48.750;9.078;2022-12-18T15:28:19;-4.00;99.90
2300;DHT22;1158;48.750;9.078;2022-12-18T15:31:06;-4.00;99.90
2300;DHT22;1158;48.750;9.078;2022-12-18T15:33:35;-4.10;99.90
2300;DHT22;1158;48.750;9.078;2022-12-18T15:36:04;-4.10;99.90
2300;DHT22;1158;48.750;9.078;2022-12-18T15:38:33;-4.20;99.90
2300;DHT22;1158;48.750;9.078;2022-12-18T15:40:59;-4.20;99.90
2300;DHT22;1158;48.750;9.078;2022-12-18T15:43:28;-4.30;99.90
2300;DHT22;1158;48.750;9.078;2022-12-18T15:46:00;-4.30;99.90
2300;DHT22;1158;48.750;9.078;2022-12-18T15:48:27;-4.40;99.90
2300;DHT22;1158;48.750;9.078;2022-12-18T15:50:56;-4.40;99.90
2300;DHT22;1158;48.750;9.078;2022-12-18T15:53:24;-4.50;99.90
2300;DHT22;1158;48.750;9.078;2022-12-18T15:55:53;-4.50;99.90
2300;DHT22;1158;48.750;9.078;2022-12-18T15:58:37;-4.60;99.90
2300;DHT22;1158;48.750;9.078;2022-12-18T16:01:04;-4.60;99.90
2300;DHT22;1158;48.750;9.078;2022-12-18T16:03:31;-4.60;99.90
2300;DHT22;1158;48.750;9.078;2022-12-18T16:05:57;-4.70;99.90
2300;DHT22;1158;48.750;9.078;2022-12-18T16:08:27;-4.70;99.90
2300;DHT22;1158;48.750;9.078;2022-12-18T16:10:56;-4.70;99.90
2300;DHT22;1158;48.750;9.078;2022-12-18T16:13:23;-4.70;99.90
2300;DHT22;1158;48.750;9.078;2022-12-18T16:15:50;-4.70;99.90
2300;DHT22;1158;48.750;9.078;2022-12-18T16:18:17;-4.60;99.90